CST,Max TemperatureF,Mean TemperatureF,Min TemperatureF,Max Dew PointF,MeanDew PointF,Min DewpointF,Max Humidity, Mean Humidity, Min Humidity, Max Sea Level PressureIn, Mean Sea Level PressureIn, Min Sea Level PressureIn, Max VisibilityMiles, Mean VisibilityMiles, Min VisibilityMiles, Max Wind SpeedMPH, Mean Wind SpeedMPH, Max Gust SpeedMPH,PrecipitationIn, CloudCover, Events, WindDirDegrees
2012-11-1,81,64,47,60,54,48,100,68,36,30.07,30.00,29.94,10,9,6,7,2,7,0.00,0,,199
2012-11-2,84,72,60,63,60,58,90,65,40,30.03,29.97,29.94,10,10,10,15,8,20,0.00,1,,219
2012-11-3,84,72,59,68,62,58,100,76,51,30.10,30.03,29.99,10,9,2,18,7,24,T,4,,210
2012-11-4,72,65,57,59,56,52,97,82,67,30.16,30.09,30.03,10,10,8,15,6,17,0.00,7,,65
2012-11-5,73,63,53,58,51,45,86,67,47,30.08,30.02,29.94,10,10,8,15,5,20,0.00,6,,356
2012-11-6,67,55,43,46,43,40,89,63,37,30.15,30.07,30.02,10,10,10,12,5,23,0.00,1,,312
2012-11-7,73,59,44,45,39,31,89,56,22,30.16,30.11,30.07,10,10,10,17,4,22,0.00,0,,325
2012-11-8,70,57,44,46,42,38,86,62,37,30.25,30.15,30.10,10,10,10,16,7,18,0.00,2,,140
2012-11-9,78,64,50,57,51,46,89,65,40,30.17,30.10,30.04,10,10,10,18,9,23,0.00,2,,160
2012-11-10,80,67,54,59,57,54,100,74,48,30.13,30.05,29.97,10,10,9,23,11,30,0.00,3,,155
2012-11-11,76,66,55,66,60,52,100,87,73,30.18,30.00,29.90,10,9,3,33,14,40,0.65,8,Rain-Thunderstorm,140
2012-11-12,59,49,38,54,39,26,93,62,30,30.48,30.37,30.18,10,10,10,20,9,25,0.02,4,,349
2012-11-13,57,46,34,37,31,25,96,63,30,30.54,30.44,30.37,10,10,9,12,4,17,0.00,3,,53
2012-11-14,60,49,37,38,33,30,82,58,33,30.43,30.37,30.32,10,10,10,10,4,12,0.00,2,,4
2012-11-15,59,46,33,36,32,26,96,63,30,30.37,30.32,30.27,10,10,10,12,3,15,0.00,3,,10
2012-11-16,63,50,36,36,33,28,92,61,30,30.41,30.36,30.32,10,10,9,13,4,17,0.00,0,,29
2012-11-17,68,51,34,40,35,31,89,59,28,30.43,30.36,30.31,10,10,10,9,2,12,0.00,0,,50
2012-11-18,69,52,34,41,38,33,92,61,30,30.36,30.30,30.25,10,10,7,9,2,16,0.00,1,,123
2012-11-19,72,58,44,47,43,41,89,62,34,30.30,30.23,30.17,10,10,10,8,1,10,0.00,5,,152
2012-11-20,77,64,50,57,52,45,93,72,50,30.22,30.17,30.11,10,9,7,8,2,16,0.00,4,,281
2012-11-21,75,61,46,54,46,38,100,63,25,30.29,30.21,30.17,10,9,6,5,2,7,0.00,1,Fog,10
2012-11-22,76,59,42,52,47,40,96,70,44,30.21,30.15,30.09,10,10,8,15,4,17,0.00,6,,174
2012-11-23,64,55,46,58,46,27,93,66,38,30.37,30.27,30.14,10,8,3,20,7,25,0.11,6,Rain,351
2012-11-24,55,45,34,32,27,20,76,51,26,30.42,30.30,30.17,10,10,10,15,4,17,0.00,1,,14
2012-11-25,68,50,31,51,39,29,89,62,34,30.16,30.05,29.96,10,10,10,16,6,22,0.00,0,,178
2012-11-26,79,66,52,64,60,51,100,77,54,30.08,29.99,29.91,10,8,2,15,6,20,0.07,7,Fog-Rain-Thunderstorm,130
2012-11-27,63,51,39,59,41,36,93,67,40,30.38,30.28,30.10,10,10,6,22,9,29,T,4,Rain-Thunderstorm,15
2012-11-28,61,47,32,37,33,29,92,61,29,30.50,30.39,30.34,10,10,10,9,2,21,0.00,0,,114
2012-11-29,66,50,33,39,35,32,100,66,31,30.35,30.27,30.19,10,10,10,12,4,18,0.00,2,,139
2012-11-30,71,57,43,58,50,36,89,76,63,30.25,30.17,30.12,10,10,7,14,5,18,0.00,6,,152